createdAt,value
2023-04-02T00:02:30.305Z,4.63
2023-04-02T00:12:33.270Z,3.20
2023-04-02T00:22:44.425Z,5.53
2023-04-02T00:32:48.110Z,4.28
2023-04-02T00:42:54.533Z,3.90
2023-04-02T00:53:00.191Z,6.25
2023-04-02T01:03:29.230Z,3.78
2023-04-02T01:13:38.067Z,4.38
2023-04-02T01:23:53.552Z,4.63
2023-04-02T01:33:57.892Z,4.30
2023-04-02T01:44:06.372Z,4.15
2023-04-02T01:54:12.846Z,8.60
2023-04-02T02:04:17.358Z,6.15
2023-04-02T02:14:24.960Z,5.10
2023-04-02T02:24:32.142Z,4.47
2023-04-02T02:34:41.900Z,5.03
2023-04-02T02:44:48.269Z,5.22
2023-04-02T02:54:55.475Z,6.93
2023-04-02T03:04:58.933Z,7.13
2023-04-02T03:15:13.931Z,6.28
2023-04-02T03:25:25.686Z,6.43
2023-04-02T03:35:37.389Z,4.72
2023-04-02T03:45:44.586Z,5.50
2023-04-02T03:55:49.685Z,6.38
2023-04-02T04:06:00.198Z,5.15
2023-04-02T04:16:10.007Z,6.65
2023-04-02T04:26:26.076Z,4.95
2023-04-02T04:36:40.293Z,6.75
2023-04-02T04:46:50.924Z,5.80
2023-04-02T04:57:05.970Z,5.40
2023-04-02T05:07:15.117Z,5.75
2023-04-02T05:17:24.116Z,6.75
2023-04-02T05:27:46.478Z,7.05
2023-04-02T05:37:54.105Z,5.43
2023-04-02T05:48:02.109Z,6.78
2023-04-02T05:58:34.625Z,6.72
2023-04-02T06:08:42.316Z,7.07
2023-04-02T06:18:46.835Z,6.60
2023-04-02T06:28:54.074Z,5.22
2023-04-02T06:39:05.496Z,5.57
2023-04-02T06:49:19.767Z,5.18
2023-04-02T06:59:24.596Z,5.15
2023-04-02T07:09:27.571Z,6.70
2023-04-02T07:19:31.960Z,6.93
2023-04-02T07:29:34.887Z,5.63
2023-04-02T07:39:40.697Z,5.10
2023-04-02T07:49:43.682Z,5.55
2023-04-02T07:59:48.234Z,6.30
2023-04-02T08:09:51.036Z,6.57
2023-04-02T08:19:56.390Z,5.00
2023-04-02T08:29:59.548Z,4.60
2023-04-02T08:40:04.761Z,4.32
2023-04-02T08:50:16.148Z,5.28
2023-04-02T09:00:28.561Z,4.93
2023-04-02T09:10:39.223Z,5.75
2023-04-02T09:20:44.131Z,5.93
2023-04-02T09:31:00.048Z,4.80
2023-04-02T09:41:06.181Z,4.70
2023-04-02T09:51:17.728Z,4.50
2023-04-02T10:01:31.614Z,5.68
2023-04-02T10:11:45.772Z,5.25
2023-04-02T10:21:53.023Z,5.13
2023-04-02T10:32:03.665Z,5.95
2023-04-02T10:42:17.473Z,5.37
2023-04-02T10:52:24.593Z,4.50
2023-04-02T11:02:39.777Z,5.95
2023-04-02T11:12:51.266Z,4.38
2023-04-02T11:23:11.143Z,6.47
2023-04-02T11:33:46.146Z,4.50
2023-04-02T11:44:03.977Z,4.57
2023-04-02T11:54:24.917Z,4.53
2023-04-02T12:05:05.950Z,5.47
2023-04-02T12:15:35.026Z,3.85
2023-04-02T12:25:41.144Z,4.07
2023-04-02T12:35:46.857Z,3.95
2023-04-02T12:45:53.999Z,4.30
2023-04-02T12:55:57.459Z,3.20
2023-04-02T13:06:02.236Z,3.78
2023-04-02T13:16:25.342Z,3.78
2023-04-02T13:26:31.285Z,4.32
2023-04-02T13:36:34.298Z,3.80
2023-04-02T13:46:39.276Z,3.83
2023-04-02T13:56:42.259Z,5.20
2023-04-02T14:07:13.164Z,3.90
2023-04-02T14:17:25.434Z,3.58
2023-04-02T14:27:48.641Z,4.28
2023-04-02T14:38:03.148Z,6.28
2023-04-02T14:48:18.026Z,6.25
2023-04-02T14:58:25.709Z,7.03
2023-04-02T15:08:38.580Z,6.60
2023-04-02T15:18:42.777Z,7.22
2023-04-02T15:28:54.173Z,8.80
2023-04-02T15:49:22.268Z,6.30
2023-04-02T15:59:51.525Z,7.45
2023-04-02T16:10:05.109Z,7.00
2023-04-02T16:20:19.138Z,6.13
2023-04-02T16:30:48.962Z,11.25
2023-04-02T16:41:08.506Z,7.50
2023-04-02T16:51:21.805Z,6.53
2023-04-02T17:01:32.392Z,7.93
2023-04-02T17:11:45.759Z,9.77
2023-04-02T17:21:55.461Z,8.48
2023-04-02T17:32:02.947Z,7.82
2023-04-02T17:42:15.875Z,7.05
2023-04-02T17:52:27.583Z,5.22
2023-04-02T18:03:00.151Z,6.30
2023-04-02T18:23:27.271Z,6.43
2023-04-02T18:34:07.020Z,5.38
2023-04-02T18:44:35.126Z,8.32
2023-04-02T18:54:46.031Z,8.65
2023-04-02T19:04:57.176Z,7.20
2023-04-02T19:15:03.096Z,10.97
2023-04-02T19:25:23.271Z,8.55
2023-04-02T19:35:37.774Z,7.93
2023-04-02T19:45:43.866Z,7.25
2023-04-02T19:55:48.380Z,9.80
2023-04-02T20:05:51.970Z,8.90
2023-04-02T20:15:59.109Z,10.52
2023-04-02T20:26:03.088Z,10.02
2023-04-02T20:36:09.921Z,10.48
2023-04-02T20:46:13.617Z,8.43
2023-04-02T20:56:21.331Z,9.40
2023-04-02T21:06:26.754Z,11.35
2023-04-02T21:16:32.398Z,10.07
2023-04-02T21:26:37.489Z,8.15
2023-04-02T21:36:43.500Z,8.98
2023-04-02T21:46:46.728Z,7.45
2023-04-02T21:56:51.699Z,7.93
2023-04-02T22:06:55.034Z,9.57
2023-04-02T22:17:00.552Z,5.30
2023-04-02T22:27:04.685Z,7.78
2023-04-02T22:37:09.114Z,6.93
2023-04-02T22:47:12.501Z,6.25
2023-04-02T22:57:17.045Z,6.38
2023-04-02T23:07:20.045Z,6.18
2023-04-02T23:17:24.759Z,5.32
2023-04-02T23:27:27.798Z,4.93
2023-04-02T23:37:32.186Z,5.97
2023-04-02T23:47:35.459Z,7.07
2023-04-02T23:57:40.645Z,7.00
